Time;durP1;ratioP1;P1;durP2;ratioP2;P2;SDS_P1;SDS_P2;PMS_P1;PMS_P2;Temp;Humidity;BMP_temperature;BMP_pressure;BME280_temperature;BME280_humidity;BME280_pressure;Samples;Min_cycle;Max_cycle;Signal;HPM_P1;HPM_P2
2023/10/13 00:01:46;;;;;;;7.22;1.80;;;19.10;99.90;;;;;;4156508;28;20173;-91
2023/10/13 00:03:47;;;;;;;5.25;2.05;;;18.90;99.90;;;;;;4173241;28;20187;-90
2023/10/13 00:05:52;;;;;;;3.22;1.80;;;18.90;99.90;;;;;;4159401;28;20267;-93
2023/10/13 00:07:53;;;;;;;6.28;2.45;;;19.00;99.90;;;;;;4189869;28;20223;-90
2023/10/13 00:09:56;;;;;;;4.43;1.77;;;19.00;99.90;;;;;;4170290;28;20191;-90
2023/10/13 00:11:57;;;;;;;7.80;2.13;;;19.00;99.90;;;;;;4206842;28;20698;-90
2023/10/13 00:13:58;;;;;;;3.10;1.75;;;18.90;99.90;;;;;;4158396;28;20173;-90
2023/10/13 00:15:59;;;;;;;8.40;2.08;;;18.90;99.90;;;;;;4157727;28;20201;-90
2023/10/13 00:17:59;;;;;;;6.82;2.20;;;19.00;99.90;;;;;;4191532;28;20187;-90
2023/10/13 00:20:00;;;;;;;7.88;2.22;;;19.00;99.90;;;;;;4174337;28;20224;-90
2023/10/13 00:22:08;;;;;;;4.70;2.55;;;19.00;99.90;;;;;;4185479;28;20190;-91
2023/10/13 00:24:14;;;;;;;8.07;2.00;;;18.90;99.90;;;;;;4168421;28;20214;-90
2023/10/13 00:26:18;;;;;;;5.95;2.70;;;18.70;99.90;;;;;;4171633;28;20188;-90
2023/10/13 00:28:47;;;;;;;4.97;2.63;;;18.80;99.90;;;;;;4176971;28;20156;-90
2023/10/13 00:30:51;;;;;;;6.60;3.33;;;18.80;99.90;;;;;;4175223;28;20164;-90
2023/10/13 00:32:56;;;;;;;7.72;3.10;;;18.80;99.90;;;;;;4170899;28;20180;-96
2023/10/13 00:34:57;;;;;;;6.72;2.58;;;18.80;99.90;;;;;;4158320;28;20677;-89
2023/10/13 00:37:18;;;;;;;5.78;3.05;;;18.90;99.90;;;;;;4171233;28;20331;-90
2023/10/13 00:39:19;;;;;;;9.45;3.70;;;18.90;99.90;;;;;;4170697;28;20187;-90
2023/10/13 00:41:49;;;;;;;9.75;4.15;;;18.90;99.90;;;;;;4174816;28;20194;-89
2023/10/13 00:46:20;;;;;;;6.25;3.10;;;18.90;99.90;;;;;;4163074;28;20214;-90
2023/10/13 00:48:43;;;;;;;16.38;4.50;;;18.90;99.90;;;;;;4176033;28;20172;-91
2023/10/13 00:50:47;;;;;;;14.07;3.80;;;18.80;99.90;;;;;;4193489;28;20160;-93
2023/10/13 00:52:51;;;;;;;7.95;4.38;;;18.80;99.90;;;;;;4161097;28;20227;-90
2023/10/13 00:54:53;;;;;;;10.10;3.65;;;18.90;99.90;;;;;;4158178;28;20177;-90
2023/10/13 00:57:11;;;;;;;6.97;3.70;;;18.80;99.90;;;;;;4159378;28;20197;-90
2023/10/13 00:59:14;;;;;;;12.88;4.05;;;18.80;99.90;;;;;;4157191;28;20259;-90
2023/10/13 01:01:18;;;;;;;9.30;4.10;;;18.80;99.90;;;;;;4159377;28;20304;-90
2023/10/13 01:03:25;;;;;;;8.60;3.85;;;18.80;99.90;;;;;;4190134;28;20405;-90
2023/10/13 01:05:27;;;;;;;6.55;3.22;;;18.80;99.90;;;;;;4206804;28;20175;-91
2023/10/13 01:07:28;;;;;;;10.10;4.30;;;18.80;99.90;;;;;;4171437;28;20703;-93
2023/10/13 01:09:32;;;;;;;10.25;4.47;;;19.00;99.90;;;;;;4186943;28;20256;-90
2023/10/13 01:11:35;;;;;;;7.07;3.55;;;19.00;99.90;;;;;;4188375;28;20228;-92
2023/10/13 01:13:36;;;;;;;8.23;4.18;;;19.00;99.90;;;;;;4170615;28;20174;-94
2023/10/13 01:15:37;;;;;;;9.20;3.78;;;18.80;99.90;;;;;;4155450;28;20172;-92
2023/10/13 01:17:38;;;;;;;9.70;4.30;;;18.70;99.90;;;;;;4155403;28;20203;-91
2023/10/13 01:19:42;;;;;;;12.65;5.13;;;18.70;99.90;;;;;;4190307;28;20171;-90
2023/10/13 01:21:44;;;;;;;10.13;3.88;;;18.70;99.90;;;;;;4202213;28;20178;-90
2023/10/13 01:23:46;;;;;;;11.18;3.90;;;18.80;99.90;;;;;;4170598;28;20207;-90
2023/10/13 01:25:48;;;;;;;8.98;4.38;;;18.80;99.90;;;;;;4188675;28;20579;-91
2023/10/13 01:27:51;;;;;;;7.65;2.90;;;18.90;99.90;;;;;;4153969;28;20180;-96
2023/10/13 01:30:09;;;;;;;8.05;4.03;;;18.90;99.90;;;;;;4170481;28;20176;-95
2023/10/13 01:32:12;;;;;;;13.43;3.75;;;18.80;99.90;;;;;;4205001;28;20205;-90
2023/10/13 01:34:21;;;;;;;6.82;3.78;;;19.10;99.90;;;;;;4168944;28;20168;-90
2023/10/13 01:36:22;;;;;;;8.55;3.60;;;19.00;99.90;;;;;;4157336;28;20259;-96
2023/10/13 01:38:28;;;;;;;8.07;3.40;;;18.90;99.90;;;;;;4186062;28;20202;-90
2023/10/13 01:40:33;;;;;;;9.00;3.60;;;18.80;99.90;;;;;;4152934;28;20185;-91
2023/10/13 01:42:36;;;;;;;8.50;2.80;;;18.80;99.90;;;;;;4184430;28;20671;-90
2023/10/13 01:44:38;;;;;;;11.45;3.78;;;18.90;99.90;;;;;;4153987;28;20173;-89
2023/10/13 01:46:39;;;;;;;5.78;3.05;;;19.00;99.90;;;;;;4187365;28;20189;-91
2023/10/13 01:48:40;;;;;;;11.20;3.90;;;18.90;99.90;;;;;;4170549;28;20643;-90
2023/10/13 01:50:41;;;;;;;12.07;3.40;;;18.80;99.90;;;;;;4156028;28;20244;-92
2023/10/13 01:52:42;;;;;;;7.28;3.53;;;18.80;99.90;;;;;;4186183;28;20184;-96
2023/10/13 01:54:48;;;;;;;7.55;3.65;;;18.80;99.90;;;;;;4153249;28;20192;-90
2023/10/13 01:56:49;;;;;;;6.10;3.58;;;18.80;99.90;;;;;;4152964;28;20205;-89
2023/10/13 01:58:51;;;;;;;10.02;3.17;;;18.70;99.90;;;;;;4184598;28;20509;-93
2023/10/13 02:00:52;;;;;;;6.65;2.70;;;18.70;99.90;;;;;;4152112;28;20201;-89
2023/10/13 02:02:53;;;;;;;10.88;3.40;;;18.70;99.90;;;;;;4184929;28;20241;-90
2023/10/13 02:05:00;;;;;;;6.63;2.75;;;18.70;99.90;;;;;;4152952;28;20173;-90
2023/10/13 02:07:01;;;;;;;14.25;3.80;;;18.70;99.90;;;;;;4170977;28;20286;-91
2023/10/13 02:11:42;;;;;;;11.23;3.03;;;18.50;99.90;;;;;;4150152;28;20283;-92
2023/10/13 02:13:48;;;;;;;5.13;2.90;;;18.70;99.90;;;;;;4146367;28;20253;-90
2023/10/13 02:15:52;;;;;;;11.77;3.70;;;18.70;99.90;;;;;;4168568;28;20196;-90
2023/10/13 02:17:54;;;;;;;8.88;2.92;;;18.60;99.90;;;;;;4151380;28;20655;-95
2023/10/13 02:19:55;;;;;;;9.10;3.35;;;18.60;99.90;;;;;;4185320;28;20226;-92
2023/10/13 02:21:59;;;;;;;6.20;2.63;;;18.70;99.90;;;;;;4168754;28;20351;-96
2023/10/13 02:24:00;;;;;;;6.00;2.70;;;18.60;99.90;;;;;;4152758;28;20189;-90
2023/10/13 02:26:02;;;;;;;9.50;3.13;;;18.50;99.90;;;;;;4168304;28;20222;-90
2023/10/13 02:28:08;;;;;;;7.53;3.30;;;18.40;99.90;;;;;;4183396;28;20182;-90
2023/10/13 02:30:13;;;;;;;10.10;3.35;;;18.40;99.90;;;;;;4183995;28;20305;-94
2023/10/13 02:32:20;;;;;;;7.28;3.38;;;18.50;99.90;;;;;;4151202;28;20534;-95
2023/10/13 02:34:24;;;;;;;7.78;2.90;;;18.60;99.90;;;;;;4183692;28;20202;-90
2023/10/13 02:36:35;;;;;;;6.47;2.78;;;18.70;99.90;;;;;;4199705;28;20221;-90
2023/10/13 02:40:40;;;;;;;5.97;3.65;;;18.70;99.90;;;;;;4198965;28;20697;-90
2023/10/13 02:42:41;;;;;;;10.05;3.10;;;18.80;99.90;;;;;;4149428;28;20608;-90
2023/10/13 02:44:45;;;;;;;4.85;2.80;;;18.70;99.90;;;;;;4182539;28;20213;-91
2023/10/13 02:46:50;;;;;;;5.43;2.83;;;18.70;99.90;;;;;;4166509;28;20204;-90
2023/10/13 02:48:53;;;;;;;8.63;2.63;;;18.70;99.90;;;;;;4182640;28;20167;-91
2023/10/13 02:51:02;;;;;;;6.18;2.80;;;18.70;99.90;;;;;;4150568;28;20177;-89
2023/10/13 02:53:12;;;;;;;6.32;2.95;;;18.60;99.90;;;;;;4165722;28;20180;-89
2023/10/13 02:55:16;;;;;;;4.38;2.45;;;18.50;99.90;;;;;;4165724;28;20175;-95
2023/10/13 02:57:17;;;;;;;7.72;2.80;;;18.50;99.90;;;;;;4149716;28;20290;-90
2023/10/13 02:59:33;;;;;;;8.85;2.58;;;18.40;99.90;;;;;;4182559;28;20164;-91
2023/10/13 03:01:37;;;;;;;6.88;2.97;;;18.40;99.90;;;;;;4165836;28;20179;-92
2023/10/13 03:03:38;;;;;;;8.95;3.22;;;18.40;99.90;;;;;;4165647;28;20294;-92
2023/10/13 03:05:39;;;;;;;10.38;3.17;;;18.40;99.90;;;;;;4182194;28;20262;-92
2023/10/13 03:07:43;;;;;;;12.25;3.38;;;18.30;99.90;;;;;;4181512;28;20674;-91
2023/10/13 03:09:50;;;;;;;9.60;2.75;;;18.40;99.90;;;;;;4182075;28;20179;-91
2023/10/13 03:11:51;;;;;;;5.88;2.80;;;18.50;99.90;;;;;;4181723;28;20627;-89
2023/10/13 03:13:52;;;;;;;8.40;2.97;;;18.50;99.90;;;;;;4182317;28;20164;-91
2023/10/13 03:15:55;;;;;;;5.78;3.03;;;18.50;99.90;;;;;;4166641;28;20250;-91
2023/10/13 03:17:58;;;;;;;6.05;3.10;;;18.50;99.90;;;;;;4182255;28;20536;-92
2023/10/13 03:20:00;;;;;;;4.88;2.50;;;18.50;99.90;;;;;;4183583;28;20176;-90
2023/10/13 03:22:09;;;;;;;10.40;3.00;;;18.60;99.90;;;;;;4165870;28;20183;-90
2023/10/13 03:24:13;;;;;;;12.85;3.13;;;18.60;99.90;;;;;;4148897;28;20268;-91
2023/10/13 03:26:17;;;;;;;6.30;2.15;;;18.60;99.90;;;;;;4198461;28;20187;-94
2023/10/13 03:28:21;;;;;;;6.95;2.78;;;18.60;99.90;;;;;;4149152;28;20188;-92
2023/10/13 03:30:29;;;;;;;9.18;2.67;;;18.60;99.90;;;;;;4166013;28;20168;-95
2023/10/13 03:32:30;;;;;;;3.05;1.73;;;18.70;99.90;;;;;;4181850;28;20199;-95
2023/10/13 03:34:31;;;;;;;6.72;2.30;;;18.70;99.90;;;;;;4198202;28;20171;-95
2023/10/13 03:38:54;;;;;;;22.52;2.83;;;18.70;99.90;;;;;;4165240;28;20295;-93
2023/10/13 03:40:56;;;;;;;8.88;2.45;;;18.70;99.90;;;;;;4181688;28;20167;-90
2023/10/13 03:45:00;;;;;;;11.48;2.80;;;18.80;99.90;;;;;;4166056;28;20172;-90
2023/10/13 03:47:17;;;;;;;2.45;1.50;;;18.80;99.90;;;;;;4165500;28;20219;-89
2023/10/13 03:49:21;;;;;;;7.55;2.75;;;18.80;99.90;;;;;;4164790;28;20178;-96
2023/10/13 03:51:30;;;;;;;6.30;2.47;;;18.80;99.90;;;;;;4164840;28;20172;-90
2023/10/13 03:53:35;;;;;;;12.38;2.25;;;18.80;99.90;;;;;;4181605;28;20166;-94
2023/10/13 03:55:36;;;;;;;5.88;2.03;;;18.90;99.90;;;;;;4149681;28;20264;-91
2023/10/13 03:57:39;;;;;;;4.28;1.98;;;18.80;99.90;;;;;;4198448;28;20186;-90
2023/10/13 03:59:42;;;;;;;6.95;2.13;;;18.80;99.90;;;;;;4165115;28;20175;-88
2023/10/13 04:06:06;;;;;;;6.93;2.40;;;19.00;99.90;;;;;;4164318;28;20282;-94
2023/10/13 04:15:18;;;;;;;8.98;1.88;;;19.00;99.90;;;;;;4167775;28;20183;-90
2023/10/13 04:17:29;;;;;;;4.13;1.95;;;19.10;99.90;;;;;;4184269;28;20186;-94
2023/10/13 04:19:36;;;;;;;3.40;1.50;;;19.20;99.90;;;;;;4168085;28;20175;-93
2023/10/13 04:21:42;;;;;;;8.18;1.92;;;19.10;99.90;;;;;;4167798;28;20168;-89
2023/10/13 04:26:09;;;;;;;2.35;1.42;;;18.90;99.90;;;;;;4127749;28;20211;-90
2023/10/13 04:30:24;;;;;;;5.65;1.73;;;18.70;99.90;;;;;;4167821;28;20167;-94
2023/10/13 04:32:38;;;;;;;8.25;2.40;;;18.70;99.90;;;;;;4184463;28;20175;-93
2023/10/13 04:34:39;;;;;;;8.25;1.73;;;18.70;99.90;;;;;;4168336;28;20223;-94
2023/10/13 04:36:45;;;;;;;3.22;1.45;;;18.70;99.90;;;;;;4167717;28;20560;-89
2023/10/13 04:38:59;;;;;;;2.67;1.33;;;18.60;99.90;;;;;;4151875;28;20261;-95
2023/10/13 04:41:02;;;;;;;7.63;1.70;;;18.50;99.90;;;;;;4151776;28;20173;-89
2023/10/13 04:43:32;;;;;;;7.30;1.98;;;18.50;99.90;;;;;;4184673;28;20238;-89
2023/10/13 04:47:41;;;;;;;3.13;1.65;;;18.50;99.90;;;;;;4200354;28;20182;-89
2023/10/13 04:52:12;;;;;;;4.85;1.50;;;18.60;99.90;;;;;;4200601;28;20229;-95
2023/10/13 04:54:25;;;;;;;2.30;1.42;;;18.80;99.90;;;;;;4184027;28;20226;-89
2023/10/13 05:03:52;;;;;;;9.20;1.63;;;18.60;99.90;;;;;;4167346;28;20638;-89
2023/10/13 05:44:33;;;;;;;4.03;1.58;;;18.60;99.90;;;;;;4150854;28;20259;-93
2023/10/13 05:48:11;;;;;;;3.67;1.63;;;18.40;99.90;;;;;;4167146;28;20183;-89
2023/10/13 06:29:31;;;;;;;9.15;2.50;;;18.70;99.90;;;;;;4166650;28;20210;-89
2023/10/13 06:31:35;;;;;;;10.68;3.20;;;18.70;99.90;;;;;;4183527;28;20205;-89
2023/10/13 06:33:35;;;;;;;9.57;3.03;;;18.70;99.90;;;;;;4150551;28;20275;-94
2023/10/13 06:35:38;;;;;;;9.27;2.60;;;18.70;99.90;;;;;;4200152;28;20175;-95
2023/10/13 06:37:42;;;;;;;6.38;2.15;;;18.70;99.90;;;;;;4150398;28;20268;-89
2023/10/13 06:39:46;;;;;;;7.40;2.40;;;18.80;99.90;;;;;;4166601;28;20202;-93
2023/10/13 06:41:46;;;;;;;6.18;2.85;;;18.90;99.90;;;;;;4149995;28;20283;-95
2023/10/13 06:43:59;;;;;;;5.45;1.95;;;18.90;99.90;;;;;;4199278;28;20244;-89
2023/10/13 06:46:00;;;;;;;2.88;1.85;;;19.00;99.90;;;;;;4183551;28;20195;-90
2023/10/13 06:48:01;;;;;;;4.88;2.53;;;18.90;99.90;;;;;;4166781;28;20183;-88
2023/10/13 06:50:02;;;;;;;4.85;2.05;;;18.90;99.90;;;;;;4166053;28;20239;-89
2023/10/13 06:52:06;;;;;;;6.38;1.83;;;18.90;99.90;;;;;;4150171;28;20199;-95
2023/10/13 06:54:12;;;;;;;5.07;1.75;;;19.00;99.90;;;;;;4167264;28;20176;-94
2023/10/13 06:56:27;;;;;;;8.25;2.70;;;19.10;99.90;;;;;;4166532;28;20200;-88
2023/10/13 06:58:29;;;;;;;7.70;1.60;;;19.30;99.90;;;;;;4166665;28;20207;-89
2023/10/13 07:00:34;;;;;;;4.53;1.80;;;19.30;99.90;;;;;;4149896;28;20177;-87
2023/10/13 07:02:35;;;;;;;6.28;2.30;;;19.10;99.90;;;;;;4184264;28;20207;-89
2023/10/13 07:04:39;;;;;;;7.60;2.30;;;19.20;99.90;;;;;;4199710;28;20171;-88
2023/10/13 07:06:50;;;;;;;7.65;2.08;;;19.30;99.90;;;;;;4149873;28;20199;-94
2023/10/13 07:08:54;;;;;;;5.93;1.73;;;19.30;99.90;;;;;;4149839;28;20183;-87
2023/10/13 07:11:02;;;;;;;6.25;2.08;;;19.40;99.90;;;;;;4183849;28;20167;-90
2023/10/13 07:13:07;;;;;;;8.75;3.10;;;19.40;99.90;;;;;;4149658;28;20275;-88
2023/10/13 07:15:19;;;;;;;4.47;1.38;;;19.50;99.90;;;;;;4167636;28;20199;-89
2023/10/13 07:17:26;;;;;;;11.18;2.53;;;19.50;99.90;;;;;;4150804;28;20199;-88
2023/10/13 07:19:30;;;;;;;9.25;2.20;;;19.50;99.90;;;;;;4151804;28;20252;-93
2023/10/13 07:21:32;;;;;;;3.78;1.75;;;19.70;99.90;;;;;;4166117;28;20169;-88
2023/10/13 07:23:35;;;;;;;4.30;1.48;;;19.70;99.90;;;;;;4183827;28;20210;-88
2023/10/13 07:25:37;;;;;;;5.10;1.75;;;19.60;99.90;;;;;;4149753;28;20278;-88
2023/10/13 07:27:38;;;;;;;11.20;2.80;;;19.60;99.90;;;;;;4150980;28;20168;-88
2023/10/13 07:29:38;;;;;;;9.90;1.48;;;19.60;99.90;;;;;;4152357;28;20180;-87
2023/10/13 07:31:44;;;;;;;6.15;2.47;;;19.60;99.90;;;;;;4182888;28;20650;-88
2023/10/13 07:33:45;;;;;;;2.97;1.80;;;19.60;99.90;;;;;;4167503;28;20172;-88
2023/10/13 07:35:51;;;;;;;5.13;1.58;;;19.60;99.90;;;;;;4149194;28;20352;-90
2023/10/13 07:37:53;;;;;;;6.20;1.63;;;19.60;99.90;;;;;;4182563;28;20187;-87
2023/10/13 07:39:57;;;;;;;3.35;1.73;;;19.50;99.90;;;;;;4150385;28;20173;-88
2023/10/13 07:42:04;;;;;;;3.90;1.55;;;19.60;99.90;;;;;;4166706;28;20271;-88
2023/10/13 07:44:06;;;;;;;5.93;1.90;;;19.60;99.90;;;;;;4183657;28;20175;-88
2023/10/13 07:46:09;;;;;;;5.53;2.15;;;19.70;99.90;;;;;;4165982;28;20226;-88
2023/10/13 07:48:20;;;;;;;12.23;2.58;;;19.70;99.90;;;;;;4165989;28;20179;-88
2023/10/13 07:50:27;;;;;;;7.95;2.22;;;19.80;99.90;;;;;;4166438;28;20183;-88
2023/10/13 07:52:36;;;;;;;5.38;1.70;;;19.90;99.90;;;;;;4166201;28;20176;-90
2023/10/13 07:54:40;;;;;;;9.48;2.35;;;20.00;99.90;;;;;;4150455;28;20188;-88
2023/10/13 07:56:40;;;;;;;9.25;2.25;;;20.00;99.90;;;;;;4199393;28;20186;-89
2023/10/13 07:58:52;;;;;;;4.47;2.28;;;20.00;99.90;;;;;;4149829;28;20188;-89
2023/10/13 08:03:17;;;;;;;7.40;1.58;;;20.00;99.90;;;;;;4200224;28;20236;-88
2023/10/13 08:05:39;;;;;;;3.95;1.75;;;20.20;99.90;;;;;;4167742;28;20533;-88
2023/10/13 08:07:40;;;;;;;6.55;2.42;;;20.30;99.90;;;;;;4150794;28;20185;-96
2023/10/13 08:09:51;;;;;;;4.97;1.75;;;20.60;99.90;;;;;;4182664;28;20297;-87
2023/10/13 08:11:54;;;;;;;5.80;2.28;;;20.80;99.90;;;;;;4183392;28;20186;-89
2023/10/13 08:13:59;;;;;;;6.75;2.58;;;20.90;99.90;;;;;;4150268;28;20701;-87
2023/10/13 08:16:20;;;;;;;7.00;1.73;;;20.80;99.90;;;;;;4166162;28;20206;-87
2023/10/13 08:18:32;;;;;;;7.75;2.15;;;20.80;99.90;;;;;;4185238;28;20172;-88
2023/10/13 08:20:40;;;;;;;10.00;2.50;;;20.60;99.90;;;;;;4167501;28;20175;-95
2023/10/13 08:22:46;;;;;;;4.65;1.85;;;20.60;99.90;;;;;;4184064;28;20321;-88
2023/10/13 08:31:22;;;;;;;12.85;2.03;;;20.60;99.90;;;;;;4166993;28;20175;-88
2023/10/13 08:33:27;;;;;;;4.40;1.73;;;20.70;99.90;;;;;;4183756;28;20321;-87
2023/10/13 08:35:35;;;;;;;5.22;1.95;;;20.70;99.90;;;;;;4149962;28;20252;-91
2023/10/13 08:37:56;;;;;;;4.10;1.73;;;20.80;99.90;;;;;;4166090;28;20172;-88
2023/10/13 08:40:19;;;;;;;6.80;2.17;;;20.80;99.90;;;;;;4166464;28;20200;-95
2023/10/13 08:42:23;;;;;;;6.90;2.03;;;20.80;99.90;;;;;;4184873;28;20203;-88
2023/10/13 08:44:33;;;;;;;6.30;1.73;;;20.90;99.90;;;;;;4150776;28;20173;-88
2023/10/13 08:47:03;;;;;;;5.97;2.25;;;20.80;99.90;;;;;;4166511;28;20780;-88
2023/10/13 08:49:29;;;;;;;7.78;1.60;;;20.90;99.90;;;;;;4199591;28;20181;-88
2023/10/13 08:51:43;;;;;;;5.28;2.03;;;20.80;99.90;;;;;;4150925;28;20203;-87
2023/10/13 08:54:08;;;;;;;6.53;1.80;;;20.70;99.90;;;;;;4151000;28;20204;-96
2023/10/13 08:58:14;;;;;;;12.23;2.58;;;20.60;99.90;;;;;;4167269;28;20178;-87
2023/10/13 09:03:28;;;;;;;10.38;2.40;;;20.70;99.90;;;;;;4186942;28;20214;-87
2023/10/13 09:05:41;;;;;;;7.78;2.28;;;20.80;99.90;;;;;;4206020;28;20247;-94
2023/10/13 09:07:47;;;;;;;5.80;1.73;;;20.80;99.90;;;;;;4191345;28;20168;-87
2023/10/13 09:12:04;;;;;;;6.18;2.08;;;21.00;99.90;;;;;;4187347;28;20255;-88
2023/10/13 09:14:32;;;;;;;4.75;1.75;;;21.30;99.90;;;;;;4154773;28;20179;-87
2023/10/13 09:18:46;;;;;;;7.72;1.40;;;21.30;99.90;;;;;;4206617;28;20704;-88
2023/10/13 09:21:02;;;;;;;5.97;1.67;;;21.30;99.90;;;;;;4187408;28;20171;-89
2023/10/13 09:23:24;;;;;;;10.88;1.73;;;21.20;99.90;;;;;;4170511;28;20207;-87
2023/10/13 09:25:33;;;;;;;7.25;1.80;;;21.10;99.90;;;;;;4172161;28;20275;-94
2023/10/13 09:27:37;;;;;;;6.55;2.15;;;20.90;99.90;;;;;;4169655;28;20180;-93
2023/10/13 09:29:41;;;;;;;8.30;2.40;;;20.90;99.90;;;;;;4173295;28;20176;-88
2023/10/13 09:31:44;;;;;;;9.77;2.60;;;20.80;99.90;;;;;;4205404;28;20201;-92
2023/10/13 09:33:55;;;;;;;5.00;2.25;;;20.90;99.90;;;;;;4156818;28;20239;-91
2023/10/13 09:35:59;;;;;;;4.63;1.88;;;20.90;99.90;;;;;;4186282;28;20276;-87
2023/10/13 09:38:17;;;;;;;5.43;1.60;;;21.00;99.90;;;;;;4204251;28;20179;-87
2023/10/13 09:40:34;;;;;;;5.57;2.30;;;21.30;99.90;;;;;;4154499;28;20199;-88
2023/10/13 09:42:48;;;;;;;5.43;2.28;;;21.30;99.90;;;;;;4174159;28;20226;-88
2023/10/13 09:45:04;;;;;;;11.02;2.60;;;21.20;99.90;;;;;;4191800;28;20160;-88
2023/10/13 09:47:17;;;;;;;10.38;2.28;;;21.20;99.90;;;;;;4155409;28;20205;-91
2023/10/13 09:49:44;;;;;;;5.32;1.85;;;21.10;99.90;;;;;;4154357;28;20168;-87
2023/10/13 09:51:46;;;;;;;6.55;1.85;;;21.10;99.90;;;;;;4171941;28;20198;-88
2023/10/13 09:54:00;;;;;;;12.07;2.10;;;21.10;99.90;;;;;;4189413;28;20184;-89
2023/10/13 09:56:26;;;;;;;5.63;1.70;;;21.10;99.90;;;;;;4171500;28;20188;-88
2023/10/13 09:58:47;;;;;;;5.13;2.20;;;20.90;99.90;;;;;;4186508;28;20175;-87
2023/10/13 10:00:57;;;;;;;4.38;2.60;;;21.00;99.90;;;;;;4173133;28;20168;-92
2023/10/13 10:03:03;;;;;;;5.95;1.30;;;21.00;99.90;;;;;;4171292;28;20271;-87
2023/10/13 10:05:22;;;;;;;5.55;1.80;;;21.00;99.90;;;;;;4174044;28;20172;-93
2023/10/13 10:07:32;;;;;;;2.92;1.70;;;21.10;99.90;;;;;;4157015;28;20208;-94
2023/10/13 10:09:34;;;;;;;6.80;2.20;;;21.20;99.90;;;;;;4190684;28;20167;-94
2023/10/13 10:11:35;;;;;;;5.43;2.72;;;21.30;99.90;;;;;;4172042;28;20275;-95
2023/10/13 10:13:42;;;;;;;10.18;1.85;;;21.30;99.90;;;;;;4170197;28;20168;-93
2023/10/13 10:15:49;;;;;;;5.57;2.58;;;21.30;99.90;;;;;;4172152;28;20179;-95
2023/10/13 10:17:50;;;;;;;4.53;1.23;;;21.40;99.90;;;;;;4185864;28;20167;-88
2023/10/13 10:19:56;;;;;;;3.70;1.92;;;21.40;99.90;;;;;;4177577;28;20180;-94
2023/10/13 10:22:10;;;;;;;9.95;2.13;;;21.40;99.90;;;;;;4155777;28;20169;-95
2023/10/13 10:24:23;;;;;;;7.60;1.55;;;21.40;99.90;;;;;;4172095;28;20671;-87
2023/10/13 10:26:25;;;;;;;6.35;2.22;;;21.50;99.90;;;;;;4170611;28;20260;-87
2023/10/13 10:28:41;;;;;;;12.30;2.47;;;21.50;99.90;;;;;;4170748;28;20668;-87
2023/10/13 10:30:43;;;;;;;12.57;2.60;;;21.60;99.90;;;;;;4174777;28;20253;-94
2023/10/13 10:32:48;;;;;;;8.02;2.28;;;21.60;99.90;;;;;;4171177;28;20212;-92
2023/10/13 10:35:23;;;;;;;7.20;2.45;;;21.70;99.90;;;;;;4174142;28;20159;-94
2023/10/13 10:37:34;;;;;;;7.03;2.20;;;21.80;99.90;;;;;;4175197;28;20192;-94
2023/10/13 10:39:45;;;;;;;7.53;2.63;;;21.80;99.90;;;;;;4175145;28;20263;-87
2023/10/13 10:41:51;;;;;;;5.60;2.40;;;21.80;99.90;;;;;;4203393;28;20569;-88
2023/10/13 10:43:53;;;;;;;9.90;2.45;;;21.80;99.90;;;;;;4171597;28;20278;-87
2023/10/13 10:45:59;;;;;;;5.45;2.33;;;21.90;99.90;;;;;;4191391;28;20258;-87
2023/10/13 10:48:18;;;;;;;13.55;2.65;;;21.90;99.90;;;;;;4172701;28;20179;-86
2023/10/13 10:50:34;;;;;;;11.73;2.17;;;21.80;99.90;;;;;;4156191;28;20676;-87
2023/10/13 10:52:37;;;;;;;12.82;1.92;;;21.90;99.90;;;;;;4159014;28;20157;-95
2023/10/13 10:54:43;;;;;;;7.45;1.60;;;21.90;99.90;;;;;;4174174;28;20223;-86
2023/10/13 10:56:52;;;;;;;3.70;1.50;;;22.10;99.90;;;;;;4154950;28;20192;-87
2023/10/13 10:59:01;;;;;;;5.25;2.17;;;22.10;99.90;;;;;;4173026;28;20567;-87
2023/10/13 11:01:20;;;;;;;6.80;1.77;;;22.20;99.90;;;;;;4176010;28;20168;-86
2023/10/13 11:03:22;;;;;;;4.28;2.20;;;22.30;99.90;;;;;;4175410;28;20220;-88
2023/10/13 11:05:32;;;;;;;18.20;2.22;;;22.40;99.90;;;;;;4187613;28;20168;-87
2023/10/13 11:07:34;;;;;;;10.73;2.15;;;22.50;99.90;;;;;;4190002;28;20319;-87
2023/10/13 11:09:45;;;;;;;6.65;1.65;;;22.40;99.90;;;;;;4174117;28;20171;-94
2023/10/13 11:11:52;;;;;;;7.10;2.15;;;22.30;99.90;;;;;;4205744;28;20733;-90
2023/10/13 11:14:22;;;;;;;7.47;2.15;;;22.40;99.90;;;;;;4174282;28;20195;-88
2023/10/13 11:16:24;;;;;;;9.88;2.28;;;22.30;99.90;;;;;;4172683;28;20199;-87
2023/10/13 11:18:40;;;;;;;7.80;2.22;;;22.30;99.90;;;;;;4188897;28;20170;-93
2023/10/13 11:20:44;;;;;;;7.22;2.03;;;22.40;99.90;;;;;;4156233;28;20185;-95
2023/10/13 11:22:49;;;;;;;5.80;2.15;;;22.40;99.90;;;;;;4156317;28;20208;-87
2023/10/13 11:24:50;;;;;;;12.27;3.08;;;22.30;99.90;;;;;;4173448;28;20182;-96
2023/10/13 11:26:52;;;;;;;8.25;2.75;;;22.30;99.90;;;;;;4154771;28;20185;-94
2023/10/13 11:28:55;;;;;;;8.13;2.10;;;22.30;99.90;;;;;;4168851;28;20651;-86
2023/10/13 11:31:19;;;;;;;11.23;2.05;;;22.40;99.90;;;;;;4171990;28;20164;-94
2023/10/13 11:33:28;;;;;;;9.10;2.38;;;22.30;99.90;;;;;;4204356;28;20182;-93
2023/10/13 11:38:12;;;;;;;8.25;2.55;;;22.40;99.90;;;;;;4190029;28;20159;-87
2023/10/13 11:40:43;;;;;;;8.80;2.88;;;22.40;99.90;;;;;;4170075;28;20210;-88
2023/10/13 11:42:47;;;;;;;16.00;2.75;;;22.50;99.90;;;;;;4171653;28;20227;-86
2023/10/13 11:45:15;;;;;;;12.63;3.28;;;22.60;99.90;;;;;;4168198;28;20175;-90
2023/10/13 11:49:36;;;;;;;7.93;1.95;;;22.70;99.90;;;;;;4188551;28;20170;-92
2023/10/13 11:51:38;;;;;;;5.90;2.53;;;22.70;99.90;;;;;;4192864;28;20182;-96
2023/10/13 11:53:39;;;;;;;8.88;2.78;;;22.70;99.90;;;;;;4154741;28;20226;-86
2023/10/13 11:55:39;;;;;;;7.80;2.50;;;22.90;99.90;;;;;;4171070;28;20176;-93
2023/10/13 11:57:40;;;;;;;6.25;2.08;;;22.80;99.90;;;;;;4173837;28;20172;-92
2023/10/13 11:59:46;;;;;;;11.90;2.17;;;22.90;99.90;;;;;;4188969;28;20628;-89
2023/10/13 12:08:49;;;;;;;12.48;2.35;;;22.70;99.90;;;;;;4206329;28;20258;-87
2023/10/13 12:10:59;;;;;;;3.72;1.88;;;22.70;99.90;;;;;;4191166;28;20148;-87
2023/10/13 12:13:10;;;;;;;6.28;2.13;;;22.50;99.90;;;;;;4169937;28;20164;-87
2023/10/13 12:15:36;;;;;;;4.85;2.35;;;22.40;99.90;;;;;;4173116;28;20178;-95
2023/10/13 12:17:34;;;;;;;6.22;1.98;;;22.50;99.90;;;;;;4189009;28;20191;-90
2023/10/13 12:19:35;;;;;;;6.30;1.80;;;22.50;99.90;;;;;;4155393;28;20211;-94
2023/10/13 12:21:37;;;;;;;10.05;2.10;;;22.40;99.90;;;;;;4173485;28;20164;-95
2023/10/13 12:23:38;;;;;;;8.05;2.15;;;22.40;99.90;;;;;;4187894;28;20203;-88
2023/10/13 12:25:54;;;;;;;8.63;2.38;;;22.40;99.90;;;;;;4153908;28;20180;-87
2023/10/13 12:28:06;;;;;;;6.75;2.30;;;22.20;99.90;;;;;;4187737;28;20179;-94
2023/10/13 12:30:13;;;;;;;7.25;2.00;;;22.20;99.90;;;;;;4170975;28;20176;-87
2023/10/13 12:32:20;;;;;;;4.65;1.83;;;22.20;99.90;;;;;;4151844;28;20186;-93
2023/10/13 12:34:46;;;;;;;6.25;2.03;;;22.10;99.90;;;;;;4187848;28;20179;-87
2023/10/13 12:36:53;;;;;;;5.38;1.67;;;22.10;99.90;;;;;;4172958;28;20211;-87
2023/10/13 12:50:43;;;;;;;7.28;1.98;;;22.30;99.90;;;;;;4173565;28;20592;-94
2023/10/13 12:52:45;;;;;;;7.70;2.70;;;22.30;99.90;;;;;;4205486;28;20175;-87
2023/10/13 12:56:56;;;;;;;5.35;1.65;;;22.30;99.90;;;;;;4175363;28;20190;-88
2023/10/13 12:58:57;;;;;;;3.60;1.73;;;22.30;99.90;;;;;;4173765;28;20649;-94
2023/10/13 13:01:06;;;;;;;3.50;1.45;;;22.40;99.90;;;;;;4174444;28;20169;-87
2023/10/13 13:03:11;;;;;;;8.82;2.20;;;22.30;99.90;;;;;;4158661;28;20319;-94
2023/10/13 13:05:12;;;;;;;8.18;2.03;;;22.30;99.90;;;;;;4173081;28;20176;-94
2023/10/13 13:07:13;;;;;;;9.20;2.80;;;22.30;99.90;;;;;;4203938;28;20246;-86
2023/10/13 13:09:14;;;;;;;4.00;1.77;;;22.40;99.90;;;;;;4157514;28;20180;-87
2023/10/13 13:11:15;;;;;;;7.93;1.90;;;22.50;99.90;;;;;;4207992;28;20266;-92
2023/10/13 13:13:16;;;;;;;6.90;2.50;;;22.50;99.90;;;;;;4158001;28;20584;-88
2023/10/13 13:15:23;;;;;;;4.63;2.05;;;22.60;99.90;;;;;;4173452;28;20177;-93
2023/10/13 13:17:24;;;;;;;6.05;2.30;;;22.70;99.90;;;;;;4190352;28;20277;-87
2023/10/13 13:19:25;;;;;;;5.32;2.25;;;22.70;99.90;;;;;;4175719;28;20176;-90
2023/10/13 13:21:27;;;;;;;11.90;2.65;;;22.70;99.90;;;;;;4158478;28;20148;-96
2023/10/13 13:23:31;;;;;;;10.15;2.53;;;22.90;99.90;;;;;;4175148;28;20222;-87
2023/10/13 13:25:32;;;;;;;7.75;1.83;;;22.90;99.90;;;;;;4173339;28;20250;-87
2023/10/13 13:27:33;;;;;;;6.88;1.85;;;22.90;99.90;;;;;;4191854;28;20575;-88
2023/10/13 13:29:37;;;;;;;7.32;2.00;;;22.90;99.90;;;;;;4175953;28;20145;-86
2023/10/13 13:31:42;;;;;;;4.20;1.98;;;23.00;99.90;;;;;;4157699;28;20177;-88
2023/10/13 13:33:43;;;;;;;2.88;1.42;;;23.10;99.90;;;;;;4171968;28;20183;-87
2023/10/13 13:35:44;;;;;;;5.50;1.85;;;23.10;99.90;;;;;;4171086;28;20168;-86
2023/10/13 13:37:45;;;;;;;4.35;2.20;;;23.10;99.90;;;;;;4157061;28;20648;-93
2023/10/13 13:39:46;;;;;;;5.15;1.95;;;23.10;99.90;;;;;;4190733;28;20183;-92
2023/10/13 13:41:50;;;;;;;4.80;1.75;;;23.20;99.90;;;;;;4177096;28;20207;-85